sensor_id;sensor_type;location;lat;lon;timestamp;P1;durP1;ratioP1;P2;durP2;ratioP2
11537;SDS011;50159;49.426;11.182;2023-02-04T00:00:11;6.03;;;3.57;;
11537;SDS011;50159;49.426;11.182;2023-02-04T00:02:45;8.03;;;3.03;;
11537;SDS011;50159;49.426;11.182;2023-02-04T00:05:11;8.90;;;3.40;;
11537;SDS011;50159;49.426;11.182;2023-02-04T00:07:38;11.77;;;4.13;;
11537;SDS011;50159;49.426;11.182;2023-02-04T00:10:07;14.80;;;3.73;;
11537;SDS011;50159;49.426;11.182;2023-02-04T00:12:35;9.27;;;2.70;;
11537;SDS011;50159;49.426;11.182;2023-02-04T00:15:02;4.10;;;2.80;;
11537;SDS011;50159;49.426;11.182;2023-02-04T00:17:29;4.87;;;2.77;;
11537;SDS011;50159;49.426;11.182;2023-02-04T00:19:56;7.07;;;3.73;;
11537;SDS011;50159;49.426;11.182;2023-02-04T00:22:23;10.03;;;3.63;;
11537;SDS011;50159;49.426;11.182;2023-02-04T00:24:51;5.13;;;3.00;;
11537;SDS011;50159;49.426;11.182;2023-02-04T00:27:18;12.63;;;3.60;;
11537;SDS011;50159;49.426;11.182;2023-02-04T00:29:45;8.60;;;3.47;;
11537;SDS011;50159;49.426;11.182;2023-02-04T00:32:11;8.07;;;3.10;;
11537;SDS011;50159;49.426;11.182;2023-02-04T00:34:38;10.60;;;3.30;;
11537;SDS011;50159;49.426;11.182;2023-02-04T00:37:06;6.70;;;3.07;;
11537;SDS011;50159;49.426;11.182;2023-02-04T00:39:32;7.13;;;3.40;;
11537;SDS011;50159;49.426;11.182;2023-02-04T00:41:59;17.20;;;3.67;;
11537;SDS011;50159;49.426;11.182;2023-02-04T00:44:26;5.87;;;2.73;;
11537;SDS011;50159;49.426;11.182;2023-02-04T00:46:53;7.60;;;3.50;;
11537;SDS011;50159;49.426;11.182;2023-02-04T00:49:20;7.37;;;3.43;;
11537;SDS011;50159;49.426;11.182;2023-02-04T00:51:47;7.93;;;3.43;;
11537;SDS011;50159;49.426;11.182;2023-02-04T00:54:14;7.43;;;3.07;;
11537;SDS011;50159;49.426;11.182;2023-02-04T00:56:41;12.73;;;3.67;;
11537;SDS011;50159;49.426;11.182;2023-02-04T00:59:09;3.50;;;2.77;;
11537;SDS011;50159;49.426;11.182;2023-02-04T01:01:36;10.43;;;3.93;;
11537;SDS011;50159;49.426;11.182;2023-02-04T01:04:03;8.23;;;3.13;;
11537;SDS011;50159;49.426;11.182;2023-02-04T01:06:30;3.40;;;2.63;;
11537;SDS011;50159;49.426;11.182;2023-02-04T01:08:57;6.70;;;3.17;;
11537;SDS011;50159;49.426;11.182;2023-02-04T01:11:24;16.47;;;4.27;;
11537;SDS011;50159;49.426;11.182;2023-02-04T01:13:51;6.63;;;3.60;;
11537;SDS011;50159;49.426;11.182;2023-02-04T01:16:18;8.33;;;3.40;;
11537;SDS011;50159;49.426;11.182;2023-02-04T01:18:44;5.63;;;2.83;;
11537;SDS011;50159;49.426;11.182;2023-02-04T01:21:11;9.80;;;3.20;;
11537;SDS011;50159;49.426;11.182;2023-02-04T01:23:38;8.87;;;3.37;;
11537;SDS011;50159;49.426;11.182;2023-02-04T01:26:05;10.67;;;3.37;;
11537;SDS011;50159;49.426;11.182;2023-02-04T01:28:32;5.00;;;2.97;;
11537;SDS011;50159;49.426;11.182;2023-02-04T01:30:59;14.03;;;3.63;;
11537;SDS011;50159;49.426;11.182;2023-02-04T01:33:26;13.43;;;3.27;;
11537;SDS011;50159;49.426;11.182;2023-02-04T01:35:53;8.77;;;3.47;;
11537;SDS011;50159;49.426;11.182;2023-02-04T01:38:19;8.63;;;3.03;;
11537;SDS011;50159;49.426;11.182;2023-02-04T01:40:46;11.60;;;3.93;;
11537;SDS011;50159;49.426;11.182;2023-02-04T01:43:13;12.43;;;2.97;;
11537;SDS011;50159;49.426;11.182;2023-02-04T01:45:43;11.40;;;2.80;;
11537;SDS011;50159;49.426;11.182;2023-02-04T01:48:11;6.83;;;2.67;;
11537;SDS011;50159;49.426;11.182;2023-02-04T01:50:46;4.60;;;2.93;;
11537;SDS011;50159;49.426;11.182;2023-02-04T01:53:22;8.73;;;3.20;;
11537;SDS011;50159;49.426;11.182;2023-02-04T01:55:51;9.33;;;3.27;;
11537;SDS011;50159;49.426;11.182;2023-02-04T01:58:18;6.33;;;2.83;;
11537;SDS011;50159;49.426;11.182;2023-02-04T02:00:45;12.93;;;3.30;;
11537;SDS011;50159;49.426;11.182;2023-02-04T02:03:12;9.50;;;3.17;;
11537;SDS011;50159;49.426;11.182;2023-02-04T02:08:13;9.73;;;3.10;;
11537;SDS011;50159;49.426;11.182;2023-02-04T02:10:42;4.27;;;2.30;;
11537;SDS011;50159;49.426;11.182;2023-02-04T02:13:14;6.57;;;3.03;;
11537;SDS011;50159;49.426;11.182;2023-02-04T02:15:44;11.60;;;3.47;;
11537;SDS011;50159;49.426;11.182;2023-02-04T02:18:13;10.37;;;3.17;;
11537;SDS011;50159;49.426;11.182;2023-02-04T02:20:41;8.97;;;3.43;;
11537;SDS011;50159;49.426;11.182;2023-02-04T02:26:00;11.73;;;3.10;;
11537;SDS011;50159;49.426;11.182;2023-02-04T02:28:27;10.80;;;2.40;;
11537;SDS011;50159;49.426;11.182;2023-02-04T02:30:54;12.63;;;3.50;;
11537;SDS011;50159;49.426;11.182;2023-02-04T02:33:21;5.67;;;2.37;;
11537;SDS011;50159;49.426;11.182;2023-02-04T02:35:48;7.90;;;2.87;;
11537;SDS011;50159;49.426;11.182;2023-02-04T02:38:15;11.03;;;2.63;;
11537;SDS011;50159;49.426;11.182;2023-02-04T02:40:43;5.67;;;2.47;;
11537;SDS011;50159;49.426;11.182;2023-02-04T02:43:16;5.80;;;2.40;;
11537;SDS011;50159;49.426;11.182;2023-02-04T02:45:46;5.73;;;2.90;;
11537;SDS011;50159;49.426;11.182;2023-02-04T02:48:14;8.47;;;3.03;;
11537;SDS011;50159;49.426;11.182;2023-02-04T02:50:42;3.80;;;2.40;;
11537;SDS011;50159;49.426;11.182;2023-02-04T02:53:14;5.63;;;2.87;;
11537;SDS011;50159;49.426;11.182;2023-02-04T02:55:44;10.80;;;2.83;;
11537;SDS011;50159;49.426;11.182;2023-02-04T02:58:21;8.80;;;2.73;;
11537;SDS011;50159;49.426;11.182;2023-02-04T03:00:53;5.00;;;2.80;;
11537;SDS011;50159;49.426;11.182;2023-02-04T03:03:25;8.03;;;2.90;;
11537;SDS011;50159;49.426;11.182;2023-02-04T03:05:57;14.33;;;3.67;;
11537;SDS011;50159;49.426;11.182;2023-02-04T03:08:36;9.10;;;2.77;;
11537;SDS011;50159;49.426;11.182;2023-02-04T03:11:04;9.67;;;3.07;;
11537;SDS011;50159;49.426;11.182;2023-02-04T03:13:31;8.07;;;2.80;;
11537;SDS011;50159;49.426;11.182;2023-02-04T03:15:59;4.50;;;2.43;;
11537;SDS011;50159;49.426;11.182;2023-02-04T03:18:26;3.63;;;2.70;;
11537;SDS011;50159;49.426;11.182;2023-02-04T03:20:53;4.07;;;2.40;;
11537;SDS011;50159;49.426;11.182;2023-02-04T03:23:20;8.10;;;2.90;;
11537;SDS011;50159;49.426;11.182;2023-02-04T03:25:47;12.57;;;3.17;;
11537;SDS011;50159;49.426;11.182;2023-02-04T03:28:13;5.67;;;3.33;;
11537;SDS011;50159;49.426;11.182;2023-02-04T03:30:40;8.83;;;3.80;;
11537;SDS011;50159;49.426;11.182;2023-02-04T03:33:07;8.43;;;2.67;;
11537;SDS011;50159;49.426;11.182;2023-02-04T03:35:34;8.93;;;3.07;;
11537;SDS011;50159;49.426;11.182;2023-02-04T03:38:01;5.40;;;3.40;;
11537;SDS011;50159;49.426;11.182;2023-02-04T03:40:27;10.43;;;2.53;;
11537;SDS011;50159;49.426;11.182;2023-02-04T03:42:55;9.93;;;2.97;;
11537;SDS011;50159;49.426;11.182;2023-02-04T03:45:22;10.27;;;3.13;;
11537;SDS011;50159;49.426;11.182;2023-02-04T03:47:48;6.23;;;2.20;;
11537;SDS011;50159;49.426;11.182;2023-02-04T03:50:15;9.03;;;3.23;;
11537;SDS011;50159;49.426;11.182;2023-02-04T03:52:42;4.30;;;2.37;;
11537;SDS011;50159;49.426;11.182;2023-02-04T03:55:10;8.23;;;2.80;;
11537;SDS011;50159;49.426;11.182;2023-02-04T03:57:37;12.83;;;3.27;;
11537;SDS011;50159;49.426;11.182;2023-02-04T04:00:03;13.33;;;3.40;;
11537;SDS011;50159;49.426;11.182;2023-02-04T04:02:30;11.40;;;2.60;;
11537;SDS011;50159;49.426;11.182;2023-02-04T04:04:57;5.67;;;2.60;;
11537;SDS011;50159;49.426;11.182;2023-02-04T04:07:24;4.40;;;2.43;;
11537;SDS011;50159;49.426;11.182;2023-02-04T04:09:51;3.77;;;2.53;;
11537;SDS011;50159;49.426;11.182;2023-02-04T04:12:17;5.20;;;2.40;;
11537;SDS011;50159;49.426;11.182;2023-02-04T04:14:44;9.37;;;3.33;;
11537;SDS011;50159;49.426;11.182;2023-02-04T04:17:11;5.87;;;2.63;;
11537;SDS011;50159;49.426;11.182;2023-02-04T04:19:38;3.93;;;2.47;;
11537;SDS011;50159;49.426;11.182;2023-02-04T04:22:04;10.47;;;2.90;;
11537;SDS011;50159;49.426;11.182;2023-02-04T04:24:31;4.37;;;2.40;;
11537;SDS011;50159;49.426;11.182;2023-02-04T04:26:58;10.40;;;3.30;;
11537;SDS011;50159;49.426;11.182;2023-02-04T04:29:25;7.43;;;2.70;;
11537;SDS011;50159;49.426;11.182;2023-02-04T04:31:52;7.63;;;2.97;;
11537;SDS011;50159;49.426;11.182;2023-02-04T04:34:18;4.20;;;2.40;;
11537;SDS011;50159;49.426;11.182;2023-02-04T04:36:45;7.53;;;2.87;;
11537;SDS011;50159;49.426;11.182;2023-02-04T04:39:12;4.83;;;2.63;;
11537;SDS011;50159;49.426;11.182;2023-02-04T04:41:39;8.60;;;2.80;;
11537;SDS011;50159;49.426;11.182;2023-02-04T04:44:05;7.73;;;2.43;;
11537;SDS011;50159;49.426;11.182;2023-02-04T04:46:32;7.80;;;3.17;;
11537;SDS011;50159;49.426;11.182;2023-02-04T04:48:59;5.43;;;2.60;;
11537;SDS011;50159;49.426;11.182;2023-02-04T04:51:26;4.57;;;2.53;;
11537;SDS011;50159;49.426;11.182;2023-02-04T04:53:57;14.43;;;3.07;;
11537;SDS011;50159;49.426;11.182;2023-02-04T04:56:24;6.23;;;3.40;;
11537;SDS011;50159;49.426;11.182;2023-02-04T04:58:51;7.00;;;3.10;;
11537;SDS011;50159;49.426;11.182;2023-02-04T05:01:18;5.77;;;3.03;;
11537;SDS011;50159;49.426;11.182;2023-02-04T05:03:47;8.97;;;3.07;;
11537;SDS011;50159;49.426;11.182;2023-02-04T05:06:14;7.27;;;2.80;;
11537;SDS011;50159;49.426;11.182;2023-02-04T05:08:41;3.33;;;2.43;;
11537;SDS011;50159;49.426;11.182;2023-02-04T05:11:08;7.17;;;2.80;;
11537;SDS011;50159;49.426;11.182;2023-02-04T05:13:35;16.63;;;3.00;;
11537;SDS011;50159;49.426;11.182;2023-02-04T05:16:01;5.47;;;3.53;;
11537;SDS011;50159;49.426;11.182;2023-02-04T05:18:28;4.63;;;2.80;;
11537;SDS011;50159;49.426;11.182;2023-02-04T05:20:55;10.40;;;2.93;;
11537;SDS011;50159;49.426;11.182;2023-02-04T05:23:22;3.90;;;2.67;;
11537;SDS011;50159;49.426;11.182;2023-02-04T05:25:48;7.43;;;3.17;;
11537;SDS011;50159;49.426;11.182;2023-02-04T05:28:15;5.07;;;2.57;;
11537;SDS011;50159;49.426;11.182;2023-02-04T05:30:42;10.90;;;3.00;;
11537;SDS011;50159;49.426;11.182;2023-02-04T05:33:09;8.50;;;2.70;;
11537;SDS011;50159;49.426;11.182;2023-02-04T05:35:35;8.63;;;2.90;;
11537;SDS011;50159;49.426;11.182;2023-02-04T05:38:02;5.83;;;2.43;;
11537;SDS011;50159;49.426;11.182;2023-02-04T05:40:29;8.57;;;2.70;;
11537;SDS011;50159;49.426;11.182;2023-02-04T05:42:56;8.50;;;2.60;;
11537;SDS011;50159;49.426;11.182;2023-02-04T05:45:23;8.43;;;2.83;;
11537;SDS011;50159;49.426;11.182;2023-02-04T05:47:50;4.23;;;2.90;;
11537;SDS011;50159;49.426;11.182;2023-02-04T05:50:18;4.63;;;2.13;;
11537;SDS011;50159;49.426;11.182;2023-02-04T05:52:44;10.23;;;3.07;;
11537;SDS011;50159;49.426;11.182;2023-02-04T05:55:11;12.17;;;2.93;;
11537;SDS011;50159;49.426;11.182;2023-02-04T05:57:38;8.93;;;3.17;;
11537;SDS011;50159;49.426;11.182;2023-02-04T06:00:05;7.97;;;2.90;;
11537;SDS011;50159;49.426;11.182;2023-02-04T06:02:33;7.73;;;3.27;;
11537;SDS011;50159;49.426;11.182;2023-02-04T06:05:00;3.80;;;1.93;;
11537;SDS011;50159;49.426;11.182;2023-02-04T06:07:27;12.10;;;2.70;;
11537;SDS011;50159;49.426;11.182;2023-02-04T06:09:53;9.33;;;2.80;;
11537;SDS011;50159;49.426;11.182;2023-02-04T06:12:20;10.30;;;3.07;;
11537;SDS011;50159;49.426;11.182;2023-02-04T06:14:47;9.30;;;2.73;;
11537;SDS011;50159;49.426;11.182;2023-02-04T06:17:13;9.30;;;2.37;;
11537;SDS011;50159;49.426;11.182;2023-02-04T06:19:40;6.77;;;3.03;;
11537;SDS011;50159;49.426;11.182;2023-02-04T06:22:07;6.07;;;2.77;;
11537;SDS011;50159;49.426;11.182;2023-02-04T06:24:34;4.73;;;1.93;;
11537;SDS011;50159;49.426;11.182;2023-02-04T06:27:01;7.47;;;1.80;;
11537;SDS011;50159;49.426;11.182;2023-02-04T06:29:27;3.47;;;2.00;;
11537;SDS011;50159;49.426;11.182;2023-02-04T06:31:54;3.80;;;1.70;;
11537;SDS011;50159;49.426;11.182;2023-02-04T06:34:21;2.10;;;1.80;;
11537;SDS011;50159;49.426;11.182;2023-02-04T06:36:48;2.13;;;1.40;;
11537;SDS011;50159;49.426;11.182;2023-02-04T06:39:15;1.57;;;1.53;;
11537;SDS011;50159;49.426;11.182;2023-02-04T06:41:41;2.20;;;1.60;;
11537;SDS011;50159;49.426;11.182;2023-02-04T06:44:08;2.73;;;1.50;;
11537;SDS011;50159;49.426;11.182;2023-02-04T06:46:35;2.77;;;1.53;;
11537;SDS011;50159;49.426;11.182;2023-02-04T06:49:01;1.30;;;1.30;;
11537;SDS011;50159;49.426;11.182;2023-02-04T06:51:28;1.83;;;1.50;;
11537;SDS011;50159;49.426;11.182;2023-02-04T06:53:55;1.60;;;1.50;;
11537;SDS011;50159;49.426;11.182;2023-02-04T06:56:22;1.70;;;1.60;;
11537;SDS011;50159;49.426;11.182;2023-02-04T06:58:49;1.50;;;1.50;;
11537;SDS011;50159;49.426;11.182;2023-02-04T07:01:15;1.60;;;1.50;;
11537;SDS011;50159;49.426;11.182;2023-02-04T07:03:42;1.40;;;1.40;;
11537;SDS011;50159;49.426;11.182;2023-02-04T07:06:09;1.50;;;1.40;;
11537;SDS011;50159;49.426;11.182;2023-02-04T07:08:35;1.60;;;1.60;;
11537;SDS011;50159;49.426;11.182;2023-02-04T07:11:02;1.63;;;1.60;;
11537;SDS011;50159;49.426;11.182;2023-02-04T07:13:29;2.00;;;1.50;;
11537;SDS011;50159;49.426;11.182;2023-02-04T07:15:56;1.97;;;1.63;;
11537;SDS011;50159;49.426;11.182;2023-02-04T07:18:23;1.30;;;1.30;;
11537;SDS011;50159;49.426;11.182;2023-02-04T07:20:49;1.50;;;1.50;;
11537;SDS011;50159;49.426;11.182;2023-02-04T07:23:16;1.47;;;1.47;;
11537;SDS011;50159;49.426;11.182;2023-02-04T07:25:43;1.50;;;1.50;;
11537;SDS011;50159;49.426;11.182;2023-02-04T07:28:10;1.60;;;1.60;;
11537;SDS011;50159;49.426;11.182;2023-02-04T07:30:36;1.53;;;1.53;;
11537;SDS011;50159;49.426;11.182;2023-02-04T07:33:03;1.60;;;1.60;;
11537;SDS011;50159;49.426;11.182;2023-02-04T07:35:30;2.93;;;1.70;;
11537;SDS011;50159;49.426;11.182;2023-02-04T07:37:57;1.47;;;1.47;;
11537;SDS011;50159;49.426;11.182;2023-02-04T07:40:24;1.63;;;1.63;;
11537;SDS011;50159;49.426;11.182;2023-02-04T07:42:50;1.33;;;1.33;;
11537;SDS011;50159;49.426;11.182;2023-02-04T07:45:17;1.60;;;1.60;;
11537;SDS011;50159;49.426;11.182;2023-02-04T07:47:44;1.80;;;1.80;;
11537;SDS011;50159;49.426;11.182;2023-02-04T07:50:11;1.60;;;1.60;;
11537;SDS011;50159;49.426;11.182;2023-02-04T07:52:38;2.43;;;2.23;;
11537;SDS011;50159;49.426;11.182;2023-02-04T07:55:05;3.30;;;2.17;;
11537;SDS011;50159;49.426;11.182;2023-02-04T07:57:32;1.90;;;1.90;;
11537;SDS011;50159;49.426;11.182;2023-02-04T07:59:59;2.30;;;2.20;;
11537;SDS011;50159;49.426;11.182;2023-02-04T08:02:26;2.23;;;2.17;;
11537;SDS011;50159;49.426;11.182;2023-02-04T08:04:53;1.70;;;1.70;;
11537;SDS011;50159;49.426;11.182;2023-02-04T08:07:20;2.20;;;2.20;;
11537;SDS011;50159;49.426;11.182;2023-02-04T08:09:46;2.20;;;2.20;;
11537;SDS011;50159;49.426;11.182;2023-02-04T08:12:13;2.20;;;2.10;;
11537;SDS011;50159;49.426;11.182;2023-02-04T08:14:40;2.10;;;2.10;;
11537;SDS011;50159;49.426;11.182;2023-02-04T08:17:06;2.40;;;2.30;;
11537;SDS011;50159;49.426;11.182;2023-02-04T08:19:33;1.80;;;1.80;;
11537;SDS011;50159;49.426;11.182;2023-02-04T08:22:00;1.53;;;1.53;;
11537;SDS011;50159;49.426;11.182;2023-02-04T08:24:29;1.63;;;1.63;;
11537;SDS011;50159;49.426;11.182;2023-02-04T08:26:56;1.67;;;1.67;;
11537;SDS011;50159;49.426;11.182;2023-02-04T08:29:26;1.80;;;1.80;;
11537;SDS011;50159;49.426;11.182;2023-02-04T08:31:52;1.70;;;1.70;;
11537;SDS011;50159;49.426;11.182;2023-02-04T08:34:19;1.50;;;1.50;;
11537;SDS011;50159;49.426;11.182;2023-02-04T08:36:46;1.50;;;1.50;;
11537;SDS011;50159;49.426;11.182;2023-02-04T08:39:13;1.60;;;1.60;;
11537;SDS011;50159;49.426;11.182;2023-02-04T08:41:40;1.77;;;1.77;;
11537;SDS011;50159;49.426;11.182;2023-02-04T08:44:07;1.40;;;1.40;;
11537;SDS011;50159;49.426;11.182;2023-02-04T08:46:33;1.50;;;1.50;;
11537;SDS011;50159;49.426;11.182;2023-02-04T08:49:00;1.67;;;1.67;;
11537;SDS011;50159;49.426;11.182;2023-02-04T08:51:27;3.67;;;3.37;;
11537;SDS011;50159;49.426;11.182;2023-02-04T08:53:54;19.33;;;9.47;;
11537;SDS011;50159;49.426;11.182;2023-02-04T08:56:21;10.30;;;5.47;;
11537;SDS011;50159;49.426;11.182;2023-02-04T08:58:48;9.57;;;5.07;;
11537;SDS011;50159;49.426;11.182;2023-02-04T09:01:18;6.73;;;4.53;;
11537;SDS011;50159;49.426;11.182;2023-02-04T09:03:46;4.20;;;3.07;;
11537;SDS011;50159;49.426;11.182;2023-02-04T09:06:13;1.87;;;1.77;;
11537;SDS011;50159;49.426;11.182;2023-02-04T09:08:40;1.80;;;1.77;;
11537;SDS011;50159;49.426;11.182;2023-02-04T09:11:07;9.90;;;4.70;;
11537;SDS011;50159;49.426;11.182;2023-02-04T09:13:36;6.23;;;4.33;;
11537;SDS011;50159;49.426;11.182;2023-02-04T09:16:04;6.33;;;4.60;;
11537;SDS011;50159;49.426;11.182;2023-02-04T09:18:31;12.03;;;6.53;;
11537;SDS011;50159;49.426;11.182;2023-02-04T09:20:58;7.57;;;4.60;;
11537;SDS011;50159;49.426;11.182;2023-02-04T09:23:26;1.70;;;1.60;;
11537;SDS011;50159;49.426;11.182;2023-02-04T09:25:53;1.60;;;1.60;;
11537;SDS011;50159;49.426;11.182;2023-02-04T09:28:19;1.80;;;1.70;;
11537;SDS011;50159;49.426;11.182;2023-02-04T09:30:46;1.50;;;1.50;;
11537;SDS011;50159;49.426;11.182;2023-02-04T09:33:14;1.90;;;1.80;;
11537;SDS011;50159;49.426;11.182;2023-02-04T09:35:42;1.50;;;1.50;;
11537;SDS011;50159;49.426;11.182;2023-02-04T09:38:09;1.50;;;1.40;;
11537;SDS011;50159;49.426;11.182;2023-02-04T09:40:40;1.83;;;1.70;;
11537;SDS011;50159;49.426;11.182;2023-02-04T09:43:12;1.50;;;1.50;;
11537;SDS011;50159;49.426;11.182;2023-02-04T09:45:47;1.90;;;1.80;;
11537;SDS011;50159;49.426;11.182;2023-02-04T09:48:14;1.40;;;1.40;;
11537;SDS011;50159;49.426;11.182;2023-02-04T09:50:42;1.30;;;1.30;;
11537;SDS011;50159;49.426;11.182;2023-02-04T09:53:12;1.50;;;1.40;;
11537;SDS011;50159;49.426;11.182;2023-02-04T09:55:44;1.50;;;1.50;;
11537;SDS011;50159;49.426;11.182;2023-02-04T09:58:17;1.33;;;1.33;;
11537;SDS011;50159;49.426;11.182;2023-02-04T10:00:54;1.73;;;1.63;;
11537;SDS011;50159;49.426;11.182;2023-02-04T10:03:31;1.60;;;1.60;;
11537;SDS011;50159;49.426;11.182;2023-02-04T10:06:00;1.50;;;1.50;;
11537;SDS011;50159;49.426;11.182;2023-02-04T10:08:28;1.50;;;1.50;;
11537;SDS011;50159;49.426;11.182;2023-02-04T10:10:58;1.50;;;1.50;;
11537;SDS011;50159;49.426;11.182;2023-02-04T10:13:30;1.57;;;1.57;;
11537;SDS011;50159;49.426;11.182;2023-02-04T10:16:11;1.67;;;1.57;;
11537;SDS011;50159;49.426;11.182;2023-02-04T10:18:41;1.50;;;1.50;;
11537;SDS011;50159;49.426;11.182;2023-02-04T10:23:43;1.43;;;1.43;;
11537;SDS011;50159;49.426;11.182;2023-02-04T10:26:19;1.80;;;1.80;;
11537;SDS011;50159;49.426;11.182;2023-02-04T10:28:47;2.10;;;2.07;;
11537;SDS011;50159;49.426;11.182;2023-02-04T10:31:28;1.80;;;1.70;;
11537;SDS011;50159;49.426;11.182;2023-02-04T10:34:02;1.50;;;1.50;;
11537;SDS011;50159;49.426;11.182;2023-02-04T10:36:37;2.00;;;1.30;;
11537;SDS011;50159;49.426;11.182;2023-02-04T10:39:10;1.30;;;1.30;;
11537;SDS011;50159;49.426;11.182;2023-02-04T10:41:53;1.30;;;1.30;;
11537;SDS011;50159;49.426;11.182;2023-02-04T10:44:29;1.33;;;1.30;;
11537;SDS011;50159;49.426;11.182;2023-02-04T10:47:06;1.60;;;1.50;;
11537;SDS011;50159;49.426;11.182;2023-02-04T10:49:53;1.40;;;1.40;;
11537;SDS011;50159;49.426;11.182;2023-02-04T10:52:25;1.40;;;1.30;;
11537;SDS011;50159;49.426;11.182;2023-02-04T10:55:02;1.30;;;1.30;;
11537;SDS011;50159;49.426;11.182;2023-02-04T10:57:31;1.33;;;1.33;;
11537;SDS011;50159;49.426;11.182;2023-02-04T11:00:05;1.47;;;1.47;;
11537;SDS011;50159;49.426;11.182;2023-02-04T11:02:58;1.30;;;1.30;;
11537;SDS011;50159;49.426;11.182;2023-02-04T11:05:35;1.47;;;1.47;;
11537;SDS011;50159;49.426;11.182;2023-02-04T11:08:16;1.40;;;1.40;;
11537;SDS011;50159;49.426;11.182;2023-02-04T11:10:49;1.50;;;1.50;;
11537;SDS011;50159;49.426;11.182;2023-02-04T11:13:23;1.33;;;1.33;;
11537;SDS011;50159;49.426;11.182;2023-02-04T11:16:10;1.40;;;1.40;;
11537;SDS011;50159;49.426;11.182;2023-02-04T11:24:02;1.40;;;1.40;;
11537;SDS011;50159;49.426;11.182;2023-02-04T11:26:42;1.50;;;1.50;;
11537;SDS011;50159;49.426;11.182;2023-02-04T11:29:33;1.77;;;1.40;;
11537;SDS011;50159;49.426;11.182;2023-02-04T11:35:32;1.60;;;1.60;;
11537;SDS011;50159;49.426;11.182;2023-02-04T11:37:53;1.50;;;1.50;;
11537;SDS011;50159;49.426;11.182;2023-02-04T11:43:13;1.43;;;1.43;;
11537;SDS011;50159;49.426;11.182;2023-02-04T11:45:41;1.50;;;1.40;;
11537;SDS011;50159;49.426;11.182;2023-02-04T11:48:11;1.37;;;1.37;;
11537;SDS011;50159;49.426;11.182;2023-02-04T11:51:00;1.40;;;1.40;;
11537;SDS011;50159;49.426;11.182;2023-02-04T11:53:32;1.40;;;1.40;;
11537;SDS011;50159;49.426;11.182;2023-02-04T11:55:59;1.40;;;1.40;;
11537;SDS011;50159;49.426;11.182;2023-02-04T11:58:27;1.37;;;1.30;;
11537;SDS011;50159;49.426;11.182;2023-02-04T12:00:56;1.40;;;1.40;;
11537;SDS011;50159;49.426;11.182;2023-02-04T12:03:31;1.40;;;1.40;;
11537;SDS011;50159;49.426;11.182;2023-02-04T12:06:01;1.50;;;1.50;;
11537;SDS011;50159;49.426;11.182;2023-02-04T12:08:35;1.50;;;1.50;;
11537;SDS011;50159;49.426;11.182;2023-02-04T12:11:06;1.50;;;1.50;;
11537;SDS011;50159;49.426;11.182;2023-02-04T12:13:48;1.50;;;1.50;;
11537;SDS011;50159;49.426;11.182;2023-02-04T12:16:19;1.50;;;1.50;;
11537;SDS011;50159;49.426;11.182;2023-02-04T12:18:46;1.40;;;1.40;;
11537;SDS011;50159;49.426;11.182;2023-02-04T12:21:14;1.30;;;1.30;;
11537;SDS011;50159;49.426;11.182;2023-02-04T12:23:41;1.30;;;1.30;;
11537;SDS011;50159;49.426;11.182;2023-02-04T12:26:08;4.10;;;1.50;;
11537;SDS011;50159;49.426;11.182;2023-02-04T12:28:35;1.40;;;1.40;;
11537;SDS011;50159;49.426;11.182;2023-02-04T12:31:02;1.30;;;1.30;;
11537;SDS011;50159;49.426;11.182;2023-02-04T12:33:29;1.50;;;1.37;;
11537;SDS011;50159;49.426;11.182;2023-02-04T12:35:56;1.40;;;1.30;;
11537;SDS011;50159;49.426;11.182;2023-02-04T12:38:23;1.30;;;1.30;;
11537;SDS011;50159;49.426;11.182;2023-02-04T12:40:50;2.10;;;1.40;;
11537;SDS011;50159;49.426;11.182;2023-02-04T12:43:16;1.83;;;1.40;;
11537;SDS011;50159;49.426;11.182;2023-02-04T12:45:43;1.37;;;1.37;;
11537;SDS011;50159;49.426;11.182;2023-02-04T12:48:11;1.53;;;1.43;;
11537;SDS011;50159;49.426;11.182;2023-02-04T12:50:39;1.50;;;1.50;;
11537;SDS011;50159;49.426;11.182;2023-02-04T12:53:06;1.40;;;1.40;;
11537;SDS011;50159;49.426;11.182;2023-02-04T12:55:33;1.60;;;1.50;;
11537;SDS011;50159;49.426;11.182;2023-02-04T12:58:00;1.70;;;1.60;;
11537;SDS011;50159;49.426;11.182;2023-02-04T13:00:27;1.60;;;1.60;;
11537;SDS011;50159;49.426;11.182;2023-02-04T13:02:53;1.30;;;1.30;;
11537;SDS011;50159;49.426;11.182;2023-02-04T13:05:20;1.73;;;1.63;;
11537;SDS011;50159;49.426;11.182;2023-02-04T13:07:47;1.30;;;1.30;;
11537;SDS011;50159;49.426;11.182;2023-02-04T13:10:14;1.23;;;1.23;;
11537;SDS011;50159;49.426;11.182;2023-02-04T13:12:41;1.30;;;1.30;;
11537;SDS011;50159;49.426;11.182;2023-02-04T13:15:09;1.37;;;1.37;;
11537;SDS011;50159;49.426;11.182;2023-02-04T13:17:36;1.10;;;1.10;;
11537;SDS011;50159;49.426;11.182;2023-02-04T13:20:03;1.30;;;1.30;;
11537;SDS011;50159;49.426;11.182;2023-02-04T13:22:31;1.30;;;1.30;;
11537;SDS011;50159;49.426;11.182;2023-02-04T13:24:58;1.27;;;1.17;;
11537;SDS011;50159;49.426;11.182;2023-02-04T13:27:25;1.43;;;1.33;;
11537;SDS011;50159;49.426;11.182;2023-02-04T13:29:53;1.20;;;1.20;;
11537;SDS011;50159;49.426;11.182;2023-02-04T13:32:19;1.17;;;1.17;;
11537;SDS011;50159;49.426;11.182;2023-02-04T13:34:46;1.20;;;1.20;;
11537;SDS011;50159;49.426;11.182;2023-02-04T13:37:13;1.20;;;1.20;;
11537;SDS011;50159;49.426;11.182;2023-02-04T13:39:39;1.10;;;1.10;;
11537;SDS011;50159;49.426;11.182;2023-02-04T13:42:06;1.20;;;1.20;;
11537;SDS011;50159;49.426;11.182;2023-02-04T13:44:33;1.20;;;1.20;;
11537;SDS011;50159;49.426;11.182;2023-02-04T13:47:00;1.10;;;1.10;;
11537;SDS011;50159;49.426;11.182;2023-02-04T13:49:26;1.80;;;1.30;;
11537;SDS011;50159;49.426;11.182;2023-02-04T13:51:53;1.20;;;1.20;;
11537;SDS011;50159;49.426;11.182;2023-02-04T13:54:20;5.53;;;1.20;;
11537;SDS011;50159;49.426;11.182;2023-02-04T13:56:46;1.30;;;1.30;;
11537;SDS011;50159;49.426;11.182;2023-02-04T13:59:13;1.30;;;1.30;;
11537;SDS011;50159;49.426;11.182;2023-02-04T14:01:40;1.20;;;1.20;;
11537;SDS011;50159;49.426;11.182;2023-02-04T14:04:07;1.30;;;1.30;;
11537;SDS011;50159;49.426;11.182;2023-02-04T14:06:33;1.50;;;1.50;;
11537;SDS011;50159;49.426;11.182;2023-02-04T14:09:03;1.50;;;1.40;;
11537;SDS011;50159;49.426;11.182;2023-02-04T14:11:30;1.40;;;1.40;;
11537;SDS011;50159;49.426;11.182;2023-02-04T14:13:57;1.30;;;1.20;;
11537;SDS011;50159;49.426;11.182;2023-02-04T14:16:23;1.10;;;1.10;;
11537;SDS011;50159;49.426;11.182;2023-02-04T14:18:50;1.10;;;1.10;;
11537;SDS011;50159;49.426;11.182;2023-02-04T14:21:17;1.30;;;1.30;;
11537;SDS011;50159;49.426;11.182;2023-02-04T14:23:44;1.30;;;1.30;;
11537;SDS011;50159;49.426;11.182;2023-02-04T14:26:11;1.27;;;1.20;;
11537;SDS011;50159;49.426;11.182;2023-02-04T14:28:38;1.70;;;1.60;;
11537;SDS011;50159;49.426;11.182;2023-02-04T14:31:04;1.43;;;1.23;;
11537;SDS011;50159;49.426;11.182;2023-02-04T14:33:31;1.30;;;1.30;;
11537;SDS011;50159;49.426;11.182;2023-02-04T14:35:58;1.17;;;1.17;;
11537;SDS011;50159;49.426;11.182;2023-02-04T14:38:25;1.53;;;1.53;;
11537;SDS011;50159;49.426;11.182;2023-02-04T14:40:59;1.47;;;1.47;;
11537;SDS011;50159;49.426;11.182;2023-02-04T14:43:25;1.70;;;1.60;;
11537;SDS011;50159;49.426;11.182;2023-02-04T14:45:53;1.70;;;1.70;;
11537;SDS011;50159;49.426;11.182;2023-02-04T14:48:19;1.43;;;1.43;;
11537;SDS011;50159;49.426;11.182;2023-02-04T14:50:46;1.70;;;1.70;;
11537;SDS011;50159;49.426;11.182;2023-02-04T14:53:13;1.40;;;1.40;;
11537;SDS011;50159;49.426;11.182;2023-02-04T14:55:40;1.80;;;1.73;;
11537;SDS011;50159;49.426;11.182;2023-02-04T14:58:07;1.50;;;1.50;;